Time;durP1;ratioP1;P1;durP2;ratioP2;P2;SDS_P1;SDS_P2;PMS_P1;PMS_P2;Temp;Humidity;BMP_temperature;BMP_pressure;BME280_temperature;BME280_humidity;BME280_pressure;Samples;Min_cycle;Max_cycle;Signal;HPM_P1;HPM_P2
2023/05/08 00:01:25;;;;;;;46.92;27.82;;;;;;;93.68;0.00;-97987.87;1829792;78;25549;-47
2023/05/08 00:03:52;;;;;;;45.65;28.25;;;;;;;93.68;0.00;-97967.23;1813525;78;25511;-48
2023/05/08 00:06:18;;;;;;;43.48;26.10;;;;;;;93.68;0.00;-97951.77;1829834;77;25578;-48
2023/05/08 00:08:45;;;;;;;43.80;26.93;;;;;;;93.69;0.00;-97932.94;1829920;78;29626;-49
2023/05/08 00:11:11;;;;;;;45.55;26.45;;;;;;;93.69;0.00;-97925.69;1829692;77;25608;-47
2023/05/08 00:13:37;;;;;;;44.80;26.40;;;;;;;93.69;0.00;-97912.63;1829755;78;25568;-47
2023/05/08 00:16:03;;;;;;;47.38;26.23;;;;;;;93.69;0.00;-97900.06;1829711;78;25544;-47
2023/05/08 00:18:29;;;;;;;46.45;27.95;;;;;;;93.70;0.00;-97868.37;1829777;78;25405;-47
2023/05/08 00:20:55;;;;;;;47.40;27.50;;;;;;;93.70;0.00;-97846.11;1826587;77;27435;-47
2023/05/08 00:23:22;;;;;;;45.58;25.82;;;;;;;93.71;0.00;-97824.84;1823583;78;32735;-47
2023/05/08 00:25:49;;;;;;;48.52;26.15;;;;;;;93.71;0.00;-97824.84;1823651;78;25570;-47
2023/05/08 00:28:16;;;;;;;44.50;25.97;;;;;;;93.71;0.00;-97798.33;1823578;78;25496;-47
2023/05/08 00:30:42;;;;;;;49.10;27.00;;;;;;;93.71;0.00;-97783.72;1823765;78;25556;-47
2023/05/08 00:33:10;;;;;;;47.80;26.82;;;;;;;93.72;0.00;-97774.17;1823849;78;27400;-47
2023/05/08 00:35:37;;;;;;;46.08;26.65;;;;;;;93.72;0.00;-97771.62;1823584;78;25387;-49
2023/05/08 00:38:03;;;;;;;40.33;25.97;;;;;;;93.72;0.00;-97757.14;1823585;78;25614;-49
2023/05/08 00:40:29;;;;;;;46.45;25.85;;;;;;;93.72;0.00;-97740.38;1823595;78;26171;-48
2023/05/08 00:42:55;;;;;;;46.33;26.62;;;;;;;93.72;0.00;-97729.90;1823676;78;25539;-48
2023/05/08 00:45:23;;;;;;;42.03;23.83;;;;;;;93.73;0.00;-97676.92;1823607;78;29591;-50
2023/05/08 00:47:51;;;;;;;41.13;23.90;;;;;;;93.74;0.00;-97649.26;1823518;78;27238;-48
2023/05/08 00:50:19;;;;;;;39.35;23.62;;;;;;;93.74;0.00;-97626.98;1823651;78;25371;-47
2023/05/08 00:52:46;;;;;;;42.73;23.77;;;;;;;93.75;0.00;-97587.67;1823567;78;27783;-49
2023/05/08 00:55:13;;;;;;;38.15;23.32;;;;;;;93.75;0.00;-97562.08;1823686;78;25534;-49
2023/05/08 00:57:40;;;;;;;40.33;23.38;;;;;;;93.76;0.00;-97539.05;1823673;78;27378;-50
2023/05/08 01:00:11;;;;;;;42.17;24.82;;;;;;;93.76;0.00;-97532.73;1823487;78;25502;-47
2023/05/08 01:02:39;;;;;;;36.60;22.20;;;;;;;93.76;0.00;-97531.45;1823719;78;25373;-48
2023/05/08 01:05:08;;;;;;;41.53;24.07;;;;;;;93.76;0.00;-97504.58;1823640;78;25564;-48
2023/05/08 01:07:34;;;;;;;38.60;23.42;;;;;;;93.76;0.00;-97486.40;1823675;78;25546;-48
2023/05/08 01:10:04;;;;;;;38.33;22.85;;;;;;;93.77;0.00;-97464.04;1823563;78;29580;-48
2023/05/08 01:12:59;;;;;;;42.45;24.23;;;;;;;93.77;0.00;-97449.83;1823539;78;25618;-49
2023/05/08 01:15:35;;;;;;;42.65;23.85;;;;;;;93.77;0.00;-97451.12;1823671;78;25537;-47
2023/05/08 01:18:18;;;;;;;41.70;25.25;;;;;;;93.77;0.00;-97445.86;1823647;78;26035;-48
2023/05/08 01:21:11;;;;;;;39.98;23.42;;;;;;;93.77;0.00;-97453.40;1823823;78;25619;-46
2023/05/08 01:24:04;;;;;;;35.68;23.55;;;;;;;93.77;0.00;-97453.40;1823412;78;27503;-47
2023/05/08 01:26:42;;;;;;;36.88;23.35;;;;;;;93.77;0.00;-97453.80;1823682;78;25568;-48
2023/05/08 01:29:28;;;;;;;40.55;22.62;;;;;;;93.77;0.00;-97434.41;1823695;78;25624;-49
2023/05/08 01:32:33;;;;;;;37.38;22.55;;;;;;;93.77;0.00;-97411.91;1822402;78;25496;-49
2023/05/08 01:35:23;;;;;;;39.10;23.10;;;;;;;93.78;0.00;-97393.85;1818727;78;25377;-48
2023/05/08 01:37:55;;;;;;;38.50;22.73;;;;;;;93.78;0.00;-97368.00;1822562;78;28284;-49
2023/05/08 01:40:38;;;;;;;38.55;23.18;;;;;;;93.78;0.00;-97361.88;1823593;78;25419;-49
2023/05/08 01:43:31;;;;;;;41.60;23.77;;;;;;;93.79;0.00;-97354.33;1820943;78;25607;-48
2023/05/08 01:46:02;;;;;;;38.38;22.98;;;;;;;93.79;0.00;-97353.66;1823787;78;27651;-46
2023/05/08 01:48:37;;;;;;;36.95;22.35;;;;;;;93.79;0.00;-97354.33;1823864;78;25503;-50
2023/05/08 01:51:12;;;;;;;40.85;23.47;;;;;;;93.79;0.00;-97336.61;1822835;78;27530;-48
2023/05/08 01:53:43;;;;;;;41.02;22.95;;;;;;;93.79;0.00;-97327.25;1791316;79;25525;-49
2023/05/08 01:56:16;;;;;;;36.65;21.97;;;;;;;93.79;0.00;-97311.89;1791524;79;25360;-48
2023/05/08 01:58:47;;;;;;;41.20;23.30;;;;;;;93.79;0.00;-97308.99;1790726;79;25710;-48
2023/05/08 02:01:18;;;;;;;41.55;22.50;;;;;;;93.80;0.00;-97291.95;1791409;80;25653;-51
2023/05/08 02:03:48;;;;;;;39.83;23.18;;;;;;;93.80;0.00;-97270.33;1791425;79;27582;-48
2023/05/08 02:06:19;;;;;;;35.90;21.73;;;;;;;93.80;0.00;-97262.92;1791241;79;25773;-48
2023/05/08 02:08:49;;;;;;;35.08;21.20;;;;;;;93.80;0.00;-97243.91;1791412;80;25604;-47
2023/05/08 02:11:18;;;;;;;37.48;21.45;;;;;;;93.81;0.00;-97236.50;1791347;79;26179;-47
2023/05/08 02:13:47;;;;;;;36.10;20.20;;;;;;;93.81;0.00;-97228.42;1791632;80;25447;-48
2023/05/08 02:16:17;;;;;;;34.00;20.30;;;;;;;93.81;0.00;-97221.62;1791386;80;28095;-46
2023/05/08 02:18:49;;;;;;;33.90;20.57;;;;;;;93.81;0.00;-97207.80;1791330;79;25540;-49
2023/05/08 02:21:18;;;;;;;35.20;21.35;;;;;;;93.81;0.00;-97197.83;1792642;79;25381;-47
2023/05/08 02:23:48;;;;;;;22.42;14.13;;;;;;;93.81;0.00;-97182.20;1797479;79;25646;-47
2023/05/08 02:26:16;;;;;;;33.55;22.00;;;;;;;93.82;0.00;-97173.77;1797317;79;25525;-47
2023/05/08 02:28:45;;;;;;;38.65;20.82;;;;;;;93.82;0.00;-97147.62;1797232;79;28220;-47
2023/05/08 02:31:13;;;;;;;34.58;19.70;;;;;;;93.83;0.00;-97129.70;1797268;79;25544;-47
2023/05/08 02:33:42;;;;;;;31.95;18.90;;;;;;;93.83;0.00;-97119.73;1797322;79;25427;-51
2023/05/08 02:36:14;;;;;;;34.55;21.02;;;;;;;93.83;0.00;-97100.25;1781817;79;25481;-48
2023/05/08 02:38:50;;;;;;;34.92;21.00;;;;;;;93.83;0.00;-97083.48;1797265;79;25448;-48
2023/05/08 02:41:24;;;;;;;32.83;19.95;;;;;;;93.84;0.00;-97065.67;1797224;79;28329;-47
2023/05/08 02:43:55;;;;;;;30.85;19.87;;;;;;;93.84;0.00;-97049.91;1796007;79;25482;-47
2023/05/08 02:46:45;;;;;;;35.65;21.60;;;;;;;93.84;0.00;-97039.39;1731203;82;25614;-49
2023/05/08 02:49:30;;;;;;;33.58;22.60;;;;;;;93.84;0.00;-97012.02;1745575;82;25506;-49
2023/05/08 02:52:35;;;;;;;34.10;20.90;;;;;;;93.85;0.00;-96987.14;1731915;82;25404;-46
2023/05/08 02:55:23;;;;;;;34.00;19.80;;;;;;;93.85;0.00;-96968.06;1745533;82;29593;-49
2023/05/08 02:58:20;;;;;;;35.45;20.82;;;;;;;93.85;0.00;-96961.66;1731836;82;25489;-48
2023/05/08 03:01:05;;;;;;;33.45;20.08;;;;;;;93.86;0.00;-96954.98;1745543;82;25532;-48
2023/05/08 03:03:40;;;;;;;34.15;19.95;;;;;;;93.86;0.00;-96934.02;1731297;82;26036;-48
2023/05/08 03:06:18;;;;;;;33.73;19.98;;;;;;;93.86;0.00;-96917.56;1745597;82;25449;-48
2023/05/08 03:08:49;;;;;;;34.45;19.07;;;;;;;93.86;0.00;-96915.13;1731285;82;27493;-48
2023/05/08 03:11:21;;;;;;;29.07;17.95;;;;;;;93.86;0.00;-96909.88;1745535;82;25614;-47
2023/05/08 03:13:50;;;;;;;40.03;19.82;;;;;;;93.86;0.00;-96912.66;1731946;82;25454;-49
2023/05/08 03:16:23;;;;;;;33.73;19.10;;;;;;;93.86;0.00;-96923.77;1745660;82;25546;-48
2023/05/08 03:18:58;;;;;;;35.40;20.48;;;;;;;93.86;0.00;-96923.91;1731852;82;25679;-51
2023/05/08 03:21:28;;;;;;;30.77;19.05;;;;;;;93.86;0.00;-96921.22;1744689;82;27563;-51
2023/05/08 03:23:59;;;;;;;31.73;19.35;;;;;;;93.86;0.00;-96926.07;1726088;83;25695;-48
2023/05/08 03:26:27;;;;;;;36.93;20.85;;;;;;;93.86;0.00;-96931.19;1745609;82;25617;-48
2023/05/08 03:28:56;;;;;;;30.45;19.60;;;;;;;93.86;0.00;-96937.32;1745491;82;25464;-48
2023/05/08 03:31:25;;;;;;;30.65;19.92;;;;;;;93.86;0.00;-96938.34;1745734;82;25394;-48
2023/05/08 03:33:54;;;;;;;32.20;19.57;;;;;;;93.85;0.00;-96955.27;1726279;83;28090;-49
2023/05/08 03:36:25;;;;;;;30.47;18.67;;;;;;;93.85;0.00;-96973.41;1745658;81;25619;-47
2023/05/08 03:38:53;;;;;;;30.52;19.23;;;;;;;93.84;0.00;-96999.08;1745556;81;25523;-51
2023/05/08 03:41:20;;;;;;;30.75;18.87;;;;;;;93.84;0.00;-97038.78;1745414;82;25544;-48
2023/05/08 03:43:49;;;;;;;30.72;18.15;;;;;;;93.83;0.00;-97061.03;1745538;82;25619;-48
2023/05/08 03:46:17;;;;;;;33.58;17.77;;;;;;;93.83;0.00;-97092.17;1745524;82;27487;-50
2023/05/08 03:48:46;;;;;;;30.23;18.55;;;;;;;93.82;0.00;-97119.45;1745417;82;25927;-47
2023/05/08 03:51:14;;;;;;;;;;;;;;;93.81;0.00;-97158.87;1748093;82;25452;-48
2023/05/08 03:53:43;;;;;;;27.15;14.87;;;;;;;93.81;0.00;-97186.43;1745459;81;25564;-48
2023/05/08 03:56:09;;;;;;;27.70;17.23;;;;;;;93.80;0.00;-97220.13;1726148;83;25625;-48
2023/05/08 03:58:50;;;;;;;28.92;17.70;;;;;;;93.80;0.00;-97262.36;1739712;82;27493;-48
2023/05/08 04:01:34;;;;;;;28.23;18.65;;;;;;;93.79;0.00;-97299.47;1726010;83;27354;-48
2023/05/08 04:04:24;;;;;;;30.60;16.95;;;;;;;93.78;0.00;-97337.11;1739739;82;25594;-48
2023/05/08 04:07:22;;;;;;;27.42;16.95;;;;;;;93.77;0.00;-97387.22;1725997;82;26446;-48
2023/05/08 04:10:09;;;;;;;29.90;18.27;;;;;;;93.76;0.00;-97439.28;1744970;82;25558;-49
2023/05/08 04:12:41;;;;;;;30.55;17.35;;;;;;;93.75;0.00;-97494.73;1745588;81;27484;-48
2023/05/08 04:15:15;;;;;;;29.55;18.52;;;;;;;93.74;0.00;-97536.06;1744748;82;25551;-49
2023/05/08 04:17:46;;;;;;;29.27;17.42;;;;;;;93.73;0.00;-97592.41;1696223;83;25413;-50
2023/05/08 04:20:18;;;;;;;30.37;17.35;;;;;;;93.72;0.00;-97636.41;1739630;82;25609;-48
2023/05/08 04:22:49;;;;;;;26.50;17.20;;;;;;;93.71;0.00;-97683.50;1726063;82;25438;-48
2023/05/08 04:25:18;;;;;;;27.67;17.57;;;;;;;93.70;0.00;-97742.63;1745570;81;27466;-49
2023/05/08 04:27:49;;;;;;;27.17;17.55;;;;;;;93.69;0.00;-97804.64;1726253;83;25482;-49
2023/05/08 04:30:18;;;;;;;29.57;17.17;;;;;;;93.67;0.00;-97879.27;1745595;81;25566;-49
2023/05/08 04:32:46;;;;;;;26.37;15.93;;;;;;;93.66;0.00;-97946.56;1716100;82;25712;-49
2023/05/08 04:35:13;;;;;;;27.60;16.77;;;;;;;93.64;0.00;-98031.86;1745591;81;25410;-50
2023/05/08 04:37:42;;;;;;;27.07;17.10;;;;;;;93.63;0.00;-98106.05;1715976;82;27431;-48
2023/05/08 04:40:12;;;;;;;27.35;16.00;;;;;;;93.62;0.00;-98183.92;1716424;82;25705;-48
2023/05/08 04:42:42;;;;;;;28.42;16.30;;;;;;;93.60;0.00;-98274.47;1745705;82;25427;-56
2023/05/08 04:45:13;;;;;;;28.02;15.90;;;;;;;93.59;0.00;-98345.38;1745494;82;26308;-51
2023/05/08 04:47:39;;;;;;;23.32;14.95;;;;;;;93.57;0.00;-98443.45;1745598;82;25426;-51
2023/05/08 04:50:09;;;;;;;26.68;15.72;;;;;;;93.55;0.00;-98517.09;1726120;83;27394;-49
2023/05/08 04:52:36;;;;;;;;;;;;;;;93.53;0.00;-98600.38;1748035;82;25972;-50
2023/05/08 04:55:06;;;;;;;21.05;12.53;;;;;;;93.52;0.00;-98691.77;1745376;81;25600;-48
2023/05/08 04:57:34;;;;;;;19.82;12.00;;;;;;;93.50;0.00;-98798.55;1745511;81;25640;-50
2023/05/08 05:00:00;;;;;;;16.82;11.00;;;;;;;93.48;0.00;-98903.55;1745545;81;25412;-50
2023/05/08 05:02:26;;;;;;;21.57;12.98;;;;;;;93.46;0.00;-99007.89;1745455;81;27569;-48
2023/05/08 05:04:52;;;;;;;13.35;8.75;;;;;;;93.44;0.00;-99100.33;1745431;81;25442;-49
2023/05/08 05:07:18;;;;;;;15.38;9.38;;;;;;;42.22;0.00;128168.78;1726036;83;25490;-48
2023/05/08 05:09:44;;;;;;;13.88;8.43;;;;;;;42.20;0.00;128130.43;1739640;82;34898;-50
2023/05/08 05:12:10;;;;;;;12.18;8.93;;;;;;;42.18;0.00;128079.68;1726090;83;32332;-49
2023/05/08 05:14:36;;;;;;;10.75;6.90;;;;;;;42.16;0.00;128032.65;1739629;82;27686;-49
2023/05/08 05:17:02;;;;;;;9.80;6.80;;;;;;;42.13;0.00;127982.23;1725998;82;25489;-51
2023/05/08 05:19:29;;;;;;;9.20;7.30;;;;;;;42.11;0.00;127935.63;1739627;82;25642;-52
2023/05/08 05:21:55;;;;;;;9.20;6.58;;;;;;;42.09;0.00;127876.66;1725837;82;25683;-48
2023/05/08 05:24:21;;;;;;;9.20;6.58;;;;;;;42.06;0.00;127821.73;1745519;82;25414;-51
2023/05/08 05:26:47;;;;;;;9.73;5.42;;;;;;;42.04;0.00;127764.89;1745478;82;27433;-50
2023/05/08 05:29:14;;;;;;;8.38;6.03;;;;;;;42.01;0.00;127706.39;1725925;83;27258;-50
2023/05/08 05:31:41;;;;;;;8.68;5.55;;;;;;;41.98;0.00;127641.62;1739647;82;25555;-49
2023/05/08 05:34:08;;;;;;;8.38;5.62;;;;;;;41.94;0.00;127566.34;1726079;82;25581;-53
2023/05/08 05:36:35;;;;;;;7.75;5.58;;;;;;;41.91;0.00;127487.95;1739755;82;25536;-53
2023/05/08 05:39:03;;;;;;;7.60;5.37;;;;;;;41.87;0.00;127405.41;1726075;83;27556;-52
2023/05/08 05:41:29;;;;;;;7.45;5.40;;;;;;;41.83;0.00;127324.95;1739558;82;25960;-51
2023/05/08 05:43:55;;;;;;;6.42;4.80;;;;;;;41.80;0.00;127253.35;1726047;83;25431;-52
2023/05/08 05:46:25;;;;;;;6.90;4.10;;;;;;;41.76;0.00;127173.23;1739664;82;35043;-49
2023/05/08 05:48:49;;;;;;;6.33;4.53;;;;;;;41.72;0.00;127095.47;1725317;83;25598;-47
2023/05/08 05:51:15;;;;;;;9.13;4.25;;;;;;;41.69;0.00;127021.23;1745400;82;27488;-48
2023/05/08 05:53:42;;;;;;;8.88;4.87;;;;;;;41.65;0.00;126944.14;1725945;83;32763;-48
2023/05/08 05:56:10;;;;;;;7.17;3.98;;;;;;;41.62;0.00;126872.30;1739606;82;25545;-49
2023/05/08 05:58:39;;;;;;;6.03;3.62;;;;;;;41.58;0.00;126808.47;1726048;83;25624;-48
2023/05/08 06:01:05;;;;;;;4.30;3.33;;;;;;;41.56;0.00;126753.73;1739591;82;25381;-49
2023/05/08 06:03:31;;;;;;;5.15;3.50;;;;;;;41.53;0.00;126688.89;1726004;83;27589;-49
2023/05/08 06:05:57;;;;;;;4.60;3.50;;;;;;;41.51;0.00;126648.45;1745325;82;25979;-49
2023/05/08 06:08:23;;;;;;;4.20;3.42;;;;;;;41.49;0.00;126599.03;1726008;83;25475;-49
2023/05/08 06:10:50;;;;;;;5.67;3.52;;;;;;;41.47;0.00;126552.16;1739585;82;25549;-48
2023/05/08 06:13:17;;;;;;;5.00;3.65;;;;;;;41.45;0.00;126507.03;1726120;82;25555;-48
2023/05/08 06:15:43;;;;;;;4.85;3.65;;;;;;;41.42;0.00;126459.93;1756157;81;27529;-48
2023/05/08 06:18:09;;;;;;;5.17;3.15;;;;;;;41.40;0.00;126417.84;1745324;82;27291;-48
2023/05/08 06:20:38;;;;;;;4.00;3.08;;;;;;;41.38;0.00;126369.42;1726089;83;25593;-48
2023/05/08 06:23:06;;;;;;;5.55;3.22;;;;;;;41.36;0.00;126326.18;1745287;81;25604;-48
2023/05/08 06:25:32;;;;;;;3.42;2.62;;;;;;;41.33;0.00;126280.13;1745667;82;25531;-48
2023/05/08 06:28:00;;;;;;;7.15;3.27;;;;;;;41.30;0.00;126217.19;1726269;83;27467;-48
2023/05/08 06:30:26;;;;;;;4.28;2.50;;;;;;;41.27;0.00;126153.42;1745619;82;25611;-50
2023/05/08 06:32:52;;;;;;;6.70;3.12;;;;;;;41.24;0.00;126093.92;1745588;82;25715;-50
2023/05/08 06:35:19;;;;;;;6.00;2.37;;;;;;;41.21;0.00;126030.13;1726142;83;25540;-47
2023/05/08 06:37:47;;;;;;;3.77;2.40;;;;;;;41.18;0.00;125955.98;1745574;82;25383;-49
2023/05/08 06:40:13;;;;;;;3.83;2.83;;;;;;;41.14;0.00;125889.72;1745582;82;27519;-46
2023/05/08 06:42:41;;;;;;;5.05;2.33;;;;;;;41.11;0.00;125803.81;1745440;82;25531;-48
2023/05/08 06:45:09;;;;;;;3.05;2.15;;;;;;;41.06;0.00;125720.81;1745551;82;25410;-47
2023/05/08 06:47:38;;;;;;;3.58;3.08;;;;;;;41.03;0.00;125640.23;1745662;82;34802;-50
2023/05/08 06:50:07;;;;;;;5.85;2.50;;;;;;;40.99;0.00;125568.30;1745551;82;25474;-49
2023/05/08 06:52:34;;;;;;;2.87;2.50;;;;;;;40.95;0.00;125490.92;1745572;82;27481;-48
2023/05/08 06:55:00;;;;;;;3.80;2.30;;;;;;;40.92;0.00;125425.39;1713688;79;25813;-47
2023/05/08 06:57:28;;;;;;;3.15;2.33;;;;;;;40.88;0.00;125350.72;1716958;83;25608;-48
2023/05/08 06:59:54;;;;;;;3.77;2.25;;;;;;;40.84;0.00;125258.27;1716830;83;25571;-48
2023/05/08 07:02:20;;;;;;;5.05;1.92;;;;;;;40.80;0.00;125175.08;1716821;83;25604;-48
2023/05/08 07:04:48;;;;;;;4.85;2.00;;;;;;;40.76;0.00;125107.45;1716865;83;27555;-49
2023/05/08 07:07:14;;;;;;;2.87;2.37;;;;;;;40.73;0.00;125042.11;1716789;83;25580;-48
2023/05/08 07:09:41;;;;;;;3.10;2.10;;;;;;;40.69;0.00;124964.38;1716926;83;25551;-49
2023/05/08 07:12:07;;;;;;;4.10;2.30;;;;;;;40.65;0.00;124892.58;1716838;83;25458;-50
2023/05/08 07:14:33;;;;;;;4.17;2.37;;;;;;;40.62;0.00;124834.88;1716938;83;25413;-46
2023/05/08 07:17:05;;;;;;;3.35;2.05;;;;;;;40.59;0.00;124768.77;1716850;83;27497;-47
2023/05/08 07:19:31;;;;;;;2.37;1.70;;;;;;;40.55;0.00;124691.98;1716771;83;25828;-47
2023/05/08 07:21:59;;;;;;;3.47;2.10;;;;;;;40.51;0.00;124603.93;1716828;83;25402;-49
2023/05/08 07:24:25;;;;;;;2.62;2.05;;;;;;;40.46;0.00;124512.38;1716875;83;25582;-49
2023/05/08 07:26:51;;;;;;;4.75;2.20;;;;;;;40.42;0.00;124435.73;1716911;83;25407;-51
2023/05/08 07:29:19;;;;;;;2.17;1.95;;;;;;;40.39;0.00;124369.18;1716863;83;27500;-49
2023/05/08 07:31:47;;;;;;;3.08;2.65;;;;;;;40.35;0.00;124287.58;1716756;83;25438;-48
2023/05/08 07:34:14;;;;;;;2.90;1.82;;;;;;;40.30;0.00;124191.54;1716896;83;25483;-50
2023/05/08 07:36:40;;;;;;;4.85;2.45;;;;;;;40.25;0.00;124101.72;1716868;83;26268;-50
2023/05/08 07:39:06;;;;;;;3.00;2.08;;;;;;;40.22;0.00;124052.52;1716893;83;25595;-50
2023/05/08 07:41:33;;;;;;;73.45;69.17;;;;;;;40.20;0.00;124000.54;1716818;83;27516;-50
2023/05/08 07:43:59;;;;;;;75.03;70.60;;;;;;;40.17;0.00;123937.20;1716756;83;25579;-50
2023/05/08 07:46:25;;;;;;;72.15;67.42;;;;;;;40.12;0.00;123855.78;1716868;83;25427;-48
2023/05/08 07:48:52;;;;;;;73.72;69.30;;;;;;;40.07;0.00;123740.41;1716798;83;25558;-48
2023/05/08 07:51:18;;;;;;;73.67;69.37;;;;;;;40.02;0.00;123648.13;1716874;83;25545;-47
2023/05/08 07:53:44;;;;;;;67.32;63.17;;;;;;;39.98;0.00;123569.21;1716846;83;27553;-48
2023/05/08 07:56:11;;;;;;;4.50;2.58;;;;;;;39.93;0.00;123472.77;1718048;83;25902;-48
2023/05/08 07:58:37;;;;;;;5.47;2.60;;;;;;;39.86;0.00;123345.83;1729029;82;25598;-48
2023/05/08 08:01:04;;;;;;;2.35;2.15;;;;;;;39.79;0.00;123225.55;1729156;83;25537;-50
2023/05/08 08:03:30;;;;;;;3.00;2.25;;;;;;;39.75;0.00;123145.30;1698338;84;25671;-48
2023/05/08 08:05:56;;;;;;;3.02;2.10;;;;;;;39.72;0.00;123084.25;1729254;83;28060;-52
2023/05/08 08:08:22;;;;;;;4.90;2.45;;;;;;;39.72;0.00;123089.30;1698246;84;25438;-49
2023/05/08 08:10:49;;;;;;;4.62;2.40;;;;;;;39.70;0.00;123043.64;1729233;83;25596;-48
2023/05/08 08:13:16;;;;;;;6.90;2.40;;;;;;;39.65;0.00;122954.44;1698242;84;26065;-49
2023/05/08 08:15:42;;;;;;;5.80;2.40;;;;;;;39.59;0.00;122851.16;1729275;83;25494;-49
2023/05/08 08:18:09;;;;;;;2.67;2.05;;;;;;;39.53;0.00;122736.46;1699848;84;27520;-47
2023/05/08 08:20:36;;;;;;;3.27;2.30;;;;;;;39.48;0.00;122641.37;1729120;83;25425;-48
2023/05/08 08:23:02;;;;;;;2.87;2.27;;;;;;;39.49;0.00;122651.37;1728925;83;25568;-48
2023/05/08 08:25:29;;;;;;;4.28;1.85;;;;;;;39.44;0.00;122564.29;1728944;83;25505;-60
2023/05/08 08:27:55;;;;;;;4.67;2.17;;;;;;;39.46;0.00;122597.62;1728978;83;25409;-62
2023/05/08 08:30:21;;;;;;;3.22;2.25;;;;;;;39.53;0.00;122719.76;1728811;83;28225;-64
2023/05/08 08:32:47;;;;;;;2.83;2.20;;;;;;;39.62;0.00;122890.20;1727406;83;25710;-63
2023/05/08 08:35:14;;;;;;;2.72;2.20;;;;;;;39.70;0.00;123049.50;1728911;83;25632;-63
2023/05/08 08:37:40;;;;;;;2.45;1.98;;;;;;;39.77;0.00;123178.78;1728962;83;25699;-59
2023/05/08 08:40:08;;;;;;;3.42;2.20;;;;;;;39.83;0.00;123293.37;1728995;83;25641;-60
2023/05/08 08:42:34;;;;;;;3.58;2.52;;;;;;;39.90;0.00;123411.16;1728971;83;28159;-59
2023/05/08 08:45:01;;;;;;;2.52;2.02;;;;;;;39.97;0.00;123549.44;1728856;83;25569;-59
2023/05/08 08:47:31;;;;;;;3.15;2.40;;;;;;;40.02;0.00;123632.92;1729766;81;25606;-58
2023/05/08 08:50:01;;;;;;;3.85;2.27;;;;;;;40.03;0.00;123665.42;1759055;81;25566;-59
2023/05/08 08:52:35;;;;;;;3.65;2.47;;;;;;;40.06;0.00;123723.59;1759249;81;25635;-60
2023/05/08 08:55:04;;;;;;;2.95;2.42;;;;;;;40.07;0.00;123735.67;1758247;81;27507;-59
2023/05/08 08:57:36;;;;;;;2.45;2.17;;;;;;;39.99;0.00;123574.06;1754324;81;25578;-57
2023/05/08 09:00:06;;;;;;;3.22;2.30;;;;;;;39.85;0.00;123325.40;1753753;81;25500;-60
2023/05/08 09:02:34;;;;;;;3.92;3.37;;;;;;;39.73;0.00;123094.03;1753442;81;25559;-58
2023/05/08 09:05:02;;;;;;;7.67;2.58;;;;;;;39.75;0.00;123112.76;1753669;81;25394;-56
2023/05/08 09:07:30;;;;;;;3.90;2.03;;;;;;;39.81;0.00;123238.17;1753866;81;27466;-58
2023/05/08 09:09:56;;;;;;;2.87;2.33;;;;;;;39.84;0.00;123304.72;1753535;81;25754;-58
2023/05/08 09:12:23;;;;;;;3.45;2.92;;;;;;;39.89;0.00;123393.05;1753589;81;25545;-60
2023/05/08 09:14:50;;;;;;;2.42;2.20;;;;;;;39.92;0.00;123450.13;1753570;81;25562;-57
2023/05/08 09:17:17;;;;;;;3.00;2.33;;;;;;;39.96;0.00;123527.45;1753549;81;25451;-57
2023/05/08 09:19:44;;;;;;;3.37;2.47;;;;;;;39.99;0.00;123578.23;1753533;81;27016;-58
2023/05/08 09:22:12;;;;;;;2.90;2.30;;;;;;;39.99;0.00;123583.64;1753496;81;25814;-59
2023/05/08 09:24:58;;;;;;;20.77;2.80;;;;;;;39.95;0.00;123494.60;1753528;81;25570;-61
2023/05/08 09:27:27;;;;;;;5.67;2.40;;;;;;;39.99;0.00;123568.21;1753536;81;25488;-55
2023/05/08 09:30:07;;;;;;;3.65;2.30;;;;;;;40.03;0.00;123651.28;1753567;81;25725;-58
2023/05/08 09:32:37;;;;;;;2.80;2.50;;;;;;;39.96;0.00;123528.97;1753557;81;27465;-60
2023/05/08 09:35:06;;;;;;;2.83;2.50;;;;;;;39.88;0.00;123359.79;1753418;81;25394;-57
2023/05/08 09:37:32;;;;;;;5.17;2.85;;;;;;;39.85;0.00;123310.59;1753661;81;34635;-58
2023/05/08 09:40:21;;;;;;;3.67;2.77;;;;;;;39.81;0.00;123224.05;1753564;81;25529;-58
2023/05/08 09:42:49;;;;;;;2.33;2.12;;;;;;;39.77;0.00;123137.48;1753520;81;25452;-57
2023/05/08 09:45:30;;;;;;;4.40;2.62;;;;;;;39.67;0.00;122971.80;1753680;81;27518;-58
2023/05/08 09:47:57;;;;;;;2.67;2.30;;;;;;;39.66;0.00;122945.73;1753185;81;25801;-62
2023/05/08 09:50:24;;;;;;;3.20;2.35;;;;;;;39.57;0.00;122783.21;1753515;81;25562;-61
2023/05/08 09:52:51;;;;;;;2.22;2.05;;;;;;;39.45;0.00;122556.61;1753468;81;25564;-61
2023/05/08 09:55:18;;;;;;;3.87;2.62;;;;;;;39.39;0.00;122442.39;1753509;81;25453;-63
2023/05/08 09:57:57;;;;;;;3.50;2.67;;;;;;;39.31;0.00;122284.14;1740999;81;27477;-63
2023/05/08 10:00:27;;;;;;;5.17;2.62;;;;;;;39.18;0.00;122050.44;1739192;82;25548;-63
2023/05/08 10:03:00;;;;;;;3.15;2.35;;;;;;;39.06;0.00;121833.66;1738989;82;25456;-62
2023/05/08 10:05:30;;;;;;;4.97;2.40;;;;;;;39.01;0.00;121730.39;1739300;82;25422;-62
2023/05/08 10:07:58;;;;;;;3.55;2.40;;;;;;;39.06;0.00;121815.78;1739317;82;25566;-62
2023/05/08 10:10:27;;;;;;;6.40;2.50;;;;;;;39.02;0.00;121757.95;1739570;82;27497;-62
2023/05/08 10:12:56;;;;;;;7.58;2.50;;;;;;;38.94;0.00;121610.94;1739374;82;25558;-63
2023/05/08 10:15:25;;;;;;;;;;;;;;;38.85;0.00;121443.44;1741909;82;25548;-63
2023/05/08 10:18:03;;;;;;;6.17;2.50;;;;;;;38.78;0.00;121307.89;1738701;82;26207;-63
2023/05/08 10:20:32;;;;;;;3.92;2.17;;;;;;;38.78;0.00;121311.09;1739377;82;25581;-65
2023/05/08 10:22:59;;;;;;;4.20;2.40;;;;;;;38.85;0.00;121437.88;1739359;82;28062;-63
2023/05/08 10:25:30;;;;;;;3.58;2.20;;;;;;;38.83;0.00;121399.23;1739216;82;25739;-63
2023/05/08 10:28:11;;;;;;;5.03;2.95;;;;;;;38.75;0.00;121266.83;1739338;82;25579;-64
2023/05/08 10:30:42;;;;;;;2.50;2.10;;;;;;;38.79;0.00;121323.04;1739103;82;25553;-64
2023/05/08 10:33:10;;;;;;;5.40;2.72;;;;;;;38.94;0.00;121598.16;1739349;82;25593;-63
2023/05/08 10:35:37;;;;;;;2.95;2.60;;;;;;;39.01;0.00;121722.33;1739296;82;27451;-64
2023/05/08 10:38:08;;;;;;;7.78;7.12;;;;;;;38.93;0.00;121580.73;1739185;82;25749;-63
2023/05/08 10:40:37;;;;;;;3.55;2.30;;;;;;;38.88;0.00;121490.26;1739299;82;25616;-63
2023/05/08 10:43:06;;;;;;;4.03;3.65;;;;;;;38.90;0.00;121523.36;1739478;82;25592;-65
2023/05/08 10:45:33;;;;;;;69.55;65.65;;;;;;;38.99;0.00;121692.23;1739606;82;25422;-65
2023/05/08 10:48:17;;;;;;;7.17;2.27;;;;;;;39.01;0.00;121722.73;1686398;84;27571;-66
2023/05/08 10:51:07;;;;;;;2.22;2.02;;;;;;;38.94;0.00;121586.86;1686036;85;25423;-65
2023/05/08 10:54:00;;;;;;;2.40;2.20;;;;;;;38.89;0.00;121507.67;1683447;85;25650;-65
2023/05/08 10:56:28;;;;;;;2.83;2.25;;;;;;;38.80;0.00;121337.13;1684332;84;25928;-65
2023/05/08 10:58:57;;;;;;;2.58;1.98;;;;;;;38.69;0.00;121144.79;1692040;84;25514;-65
2023/05/08 11:01:25;;;;;;;18.42;17.17;;;;;;;38.62;0.00;121022.22;1692501;84;28042;-64
2023/05/08 11:03:53;;;;;;;5.97;2.23;;;;;;;38.58;0.00;120949.80;1692519;84;25505;-64
2023/05/08 11:06:45;;;;;;;2.03;1.90;;;;;;;38.49;0.00;120788.47;1692588;84;25573;-65
2023/05/08 11:09:22;;;;;;;2.58;2.33;;;;;;;38.36;0.00;120561.44;1648947;86;25679;-66
2023/05/08 11:11:57;;;;;;;3.12;1.90;;;;;;;38.33;0.00;120506.84;1643064;85;25558;-64
2023/05/08 11:14:26;;;;;;;4.90;1.95;;;;;;;38.47;0.00;120747.58;1637981;87;27522;-63
2023/05/08 11:17:00;;;;;;;3.15;2.20;;;;;;;38.61;0.00;121001.78;1649004;87;32874;-63
2023/05/08 11:19:28;;;;;;;66.37;62.43;;;;;;;38.73;0.00;121208.31;1649028;87;25703;-63
2023/05/08 11:22:14;;;;;;;47.70;45.00;;;;;;;38.88;0.00;121487.59;1648883;87;25615;-61
2023/05/08 11:24:59;;;;;;;2.27;2.02;;;;;;;38.95;0.00;121600.31;1648932;86;25573;-59
2023/05/08 11:27:39;;;;;;;2.67;2.33;;;;;;;38.86;0.00;121433.50;1648940;87;27506;-58
2023/05/08 11:30:27;;;;;;;6.12;2.67;;;;;;;38.73;0.00;121212.97;1648825;87;25491;-59
2023/05/08 11:33:06;;;;;;;28.55;25.43;;;;;;;38.68;0.00;121107.19;1648952;87;25611;-58
2023/05/08 11:35:58;;;;;;;40.30;35.13;;;;;;;38.62;0.00;121003.08;1648989;87;26177;-57
2023/05/08 11:38:34;;;;;;;3.95;2.85;;;;;;;38.55;0.00;120887.52;1648946;87;25558;-64
2023/05/08 11:43:35;;;;;;;3.52;2.35;;;;;;;38.41;0.00;120636.32;1821413;77;25307;-72
2023/05/08 11:48:39;;;;;;;2.90;2.10;;;;;;;24.48;22.10;101699.56;1832480;77;25619;-64